Time;durP1;ratioP1;P1;durP2;ratioP2;P2;SDS_P1;SDS_P2;PMS_P1;PMS_P2;Temp;Humidity;BMP_temperature;BMP_pressure;BME280_temperature;BME280_humidity;BME280_pressure;Samples;Min_cycle;Max_cycle;Signal;HPM_P1;HPM_P2
2023/06/29 00:02:29;;;;;;;5.50;3.10;;;16.50;99.90;;;;;;5222715;28;20525;-48
2023/06/29 00:04:59;;;;;;;4.30;3.50;;;16.60;99.90;;;;;;5228825;28;20266;-47
2023/06/29 00:07:33;;;;;;;3.03;2.93;;;16.50;99.90;;;;;;5221846;28;20477;-48
2023/06/29 00:10:04;;;;;;;5.33;3.73;;;16.50;99.90;;;;;;5216493;28;20264;-48
2023/06/29 00:12:35;;;;;;;4.93;4.10;;;16.50;99.90;;;;;;5219957;28;20473;-48
2023/06/29 00:15:06;;;;;;;3.17;2.80;;;16.50;99.90;;;;;;5219273;28;20972;-48
2023/06/29 00:17:37;;;;;;;2.77;2.60;;;16.50;99.90;;;;;;5217562;28;20437;-48
2023/06/29 00:20:09;;;;;;;3.73;3.43;;;16.40;99.90;;;;;;5207190;28;20837;-47
2023/06/29 00:22:40;;;;;;;4.00;3.70;;;16.40;99.90;;;;;;5224211;28;20233;-48
2023/06/29 00:25:11;;;;;;;3.53;3.23;;;16.40;99.90;;;;;;5226561;28;20834;-47
2023/06/29 00:27:42;;;;;;;4.30;3.90;;;16.30;99.90;;;;;;5217142;28;20426;-47
2023/06/29 00:30:13;;;;;;;4.03;3.63;;;16.30;99.90;;;;;;5217530;28;20206;-47
2023/06/29 00:32:44;;;;;;;3.47;3.23;;;16.30;99.90;;;;;;5213220;28;20206;-47
2023/06/29 00:35:14;;;;;;;5.00;3.67;;;16.30;99.90;;;;;;5229523;28;20820;-47
2023/06/29 00:37:45;;;;;;;4.67;3.43;;;16.30;99.90;;;;;;5214158;28;20222;-47
2023/06/29 00:40:16;;;;;;;3.87;3.53;;;16.20;99.90;;;;;;5230996;28;20684;-48
2023/06/29 00:42:48;;;;;;;4.30;3.93;;;16.20;99.90;;;;;;5213441;28;20253;-49
2023/06/29 00:45:19;;;;;;;4.20;3.70;;;16.10;99.90;;;;;;5231766;28;20877;-48
2023/06/29 00:47:51;;;;;;;4.20;3.43;;;16.10;99.90;;;;;;5220192;28;20491;-48
2023/06/29 00:50:22;;;;;;;7.37;3.70;;;16.10;99.90;;;;;;5230664;28;20270;-49
2023/06/29 00:52:53;;;;;;;3.50;3.20;;;16.10;99.90;;;;;;5227973;28;20532;-48
2023/06/29 00:55:24;;;;;;;4.10;3.67;;;16.00;99.90;;;;;;5208334;28;20680;-48
2023/06/29 00:57:55;;;;;;;10.60;3.50;;;16.00;99.90;;;;;;5229443;28;20516;-47
2023/06/29 01:00:25;;;;;;;3.70;3.40;;;16.00;99.90;;;;;;5214339;28;20559;-48
2023/06/29 01:02:56;;;;;;;8.70;3.97;;;16.00;99.90;;;;;;5225142;28;20195;-47
2023/06/29 01:05:33;;;;;;;7.13;4.30;;;16.00;99.90;;;;;;5213980;28;20270;-47
2023/06/29 01:08:07;;;;;;;5.07;4.07;;;16.00;99.90;;;;;;5230109;28;20265;-49
2023/06/29 01:10:38;;;;;;;4.00;3.43;;;16.00;99.90;;;;;;5222123;28;20441;-46
2023/06/29 01:13:09;;;;;;;4.07;3.77;;;15.90;99.90;;;;;;5194415;28;20484;-46
2023/06/29 01:15:40;;;;;;;3.40;3.10;;;15.90;99.90;;;;;;5227832;28;20539;-48
2023/06/29 01:18:13;;;;;;;5.30;3.40;;;15.90;99.90;;;;;;5222311;28;20179;-48
2023/06/29 01:20:48;;;;;;;6.33;3.53;;;15.80;99.90;;;;;;5219897;28;20485;-48
2023/06/29 01:23:29;;;;;;;7.47;4.10;;;15.80;99.90;;;;;;5211865;28;20575;-47
2023/06/29 01:26:00;;;;;;;5.77;3.97;;;15.80;99.90;;;;;;5211712;28;20437;-47
2023/06/29 01:28:32;;;;;;;8.50;4.07;;;15.80;99.90;;;;;;5217423;28;20453;-48
2023/06/29 01:31:03;;;;;;;7.10;3.80;;;15.80;99.90;;;;;;5225480;28;20660;-48
2023/06/29 01:33:34;;;;;;;4.20;3.80;;;15.70;99.90;;;;;;5209204;28;20448;-48
2023/06/29 01:36:17;;;;;;;5.00;3.53;;;15.70;99.90;;;;;;5205838;28;20453;-47
2023/06/29 01:38:55;;;;;;;7.73;3.47;;;15.70;99.90;;;;;;5210941;28;20183;-47
2023/06/29 01:41:31;;;;;;;4.87;3.70;;;15.70;99.90;;;;;;5230558;28;20433;-48
2023/06/29 01:44:05;;;;;;;5.13;4.00;;;15.70;99.90;;;;;;5229138;28;20440;-47
2023/06/29 01:46:35;;;;;;;5.67;4.23;;;15.60;99.90;;;;;;5209595;28;20790;-48
2023/06/29 01:49:06;;;;;;;7.00;4.33;;;15.60;99.90;;;;;;5211000;28;20427;-48
2023/06/29 01:51:37;;;;;;;6.83;4.47;;;15.60;99.90;;;;;;5215668;28;20207;-48
2023/06/29 01:54:08;;;;;;;12.27;4.03;;;15.60;99.90;;;;;;5201764;28;20214;-47
2023/06/29 01:56:39;;;;;;;24.37;8.10;;;15.60;99.90;;;;;;5218261;28;20469;-47
2023/06/29 01:59:10;;;;;;;35.50;16.20;;;15.60;99.90;;;;;;5220423;28;20172;-47
2023/06/29 02:01:41;;;;;;;50.67;19.23;;;15.50;99.90;;;;;;5221321;28;20195;-48
2023/06/29 02:04:11;;;;;;;38.40;14.47;;;15.50;99.90;;;;;;5229475;28;20422;-47
2023/06/29 02:06:42;;;;;;;28.10;13.60;;;15.50;99.90;;;;;;5230326;28;20205;-47
2023/06/29 02:09:13;;;;;;;22.50;9.23;;;15.50;99.90;;;;;;5225245;28;20639;-46
2023/06/29 02:11:43;;;;;;;15.83;9.23;;;15.50;99.90;;;;;;5222675;28;20211;-48
2023/06/29 02:14:17;;;;;;;11.50;6.20;;;15.50;99.90;;;;;;5224190;28;20253;-49
2023/06/29 02:16:49;;;;;;;15.43;6.97;;;15.50;99.90;;;;;;5225049;28;20203;-48
2023/06/29 02:19:20;;;;;;;19.70;7.80;;;15.50;99.90;;;;;;5225565;28;20564;-47
2023/06/29 02:21:50;;;;;;;10.53;7.33;;;15.50;99.90;;;;;;5212540;28;20576;-48
2023/06/29 02:24:21;;;;;;;6.50;5.40;;;15.40;99.90;;;;;;5210648;28;20287;-47
2023/06/29 02:26:52;;;;;;;18.83;5.87;;;15.40;99.90;;;;;;5223520;28;20182;-48
2023/06/29 02:29:23;;;;;;;7.60;5.57;;;15.40;99.90;;;;;;5191410;28;20198;-49
2023/06/29 02:31:54;;;;;;;4.43;4.00;;;15.40;99.90;;;;;;5223205;28;20465;-48
2023/06/29 02:34:24;;;;;;;4.70;4.17;;;15.30;99.90;;;;;;5225209;28;20187;-47
2023/06/29 02:36:55;;;;;;;10.07;6.60;;;15.30;99.90;;;;;;5213437;28;20214;-48
2023/06/29 02:39:25;;;;;;;6.33;4.87;;;15.30;99.90;;;;;;5229136;28;20179;-46
2023/06/29 02:41:56;;;;;;;5.70;4.60;;;15.30;99.90;;;;;;5226769;28;20241;-48
2023/06/29 02:44:27;;;;;;;9.03;4.80;;;15.30;99.90;;;;;;5196775;28;20270;-48
2023/06/29 02:46:58;;;;;;;6.10;4.63;;;15.30;99.90;;;;;;5205607;28;20636;-48
2023/06/29 02:49:29;;;;;;;11.10;6.20;;;15.40;99.90;;;;;;5225512;28;20192;-47
2023/06/29 02:52:00;;;;;;;7.13;4.53;;;15.40;99.90;;;;;;5203845;28;20444;-46
2023/06/29 02:54:30;;;;;;;6.80;5.20;;;15.40;99.90;;;;;;5214543;28;20281;-47
2023/06/29 02:57:01;;;;;;;4.97;4.20;;;15.40;99.90;;;;;;5223557;28;20198;-47
2023/06/29 02:59:31;;;;;;;8.73;4.10;;;15.30;99.90;;;;;;5224372;28;20527;-46
2023/06/29 03:02:02;;;;;;;4.47;3.90;;;15.30;99.90;;;;;;5205526;28;20246;-47
2023/06/29 03:04:33;;;;;;;8.37;4.47;;;15.30;99.90;;;;;;5211107;28;20206;-47
2023/06/29 03:07:03;;;;;;;3.73;3.43;;;15.40;99.90;;;;;;5227364;28;20187;-47
2023/06/29 03:09:34;;;;;;;5.10;4.70;;;15.40;99.90;;;;;;5215582;28;20198;-46
2023/06/29 03:12:05;;;;;;;5.20;4.33;;;15.40;99.90;;;;;;5220221;28;20207;-48
2023/06/29 03:14:36;;;;;;;4.20;3.90;;;15.40;99.90;;;;;;5207031;28;20191;-47
2023/06/29 03:17:08;;;;;;;3.93;3.60;;;15.50;99.90;;;;;;5210823;28;20438;-47
2023/06/29 03:19:38;;;;;;;10.70;4.57;;;15.50;99.90;;;;;;5208223;28;20279;-48
2023/06/29 03:22:09;;;;;;;5.67;4.43;;;15.50;99.90;;;;;;5228814;28;20446;-48
2023/06/29 03:24:39;;;;;;;13.63;4.37;;;15.60;99.90;;;;;;5209542;28;20253;-48
2023/06/29 03:27:11;;;;;;;4.83;4.30;;;15.70;99.90;;;;;;5206826;28;20318;-47
2023/06/29 03:29:41;;;;;;;4.80;4.40;;;15.70;99.90;;;;;;5199995;28;20722;-47
2023/06/29 03:32:12;;;;;;;10.90;4.00;;;15.70;99.90;;;;;;5227555;28;20529;-48
2023/06/29 03:34:43;;;;;;;3.80;3.50;;;15.80;99.90;;;;;;5220659;28;20186;-47
2023/06/29 03:37:13;;;;;;;4.30;3.90;;;15.80;99.90;;;;;;5231541;28;20180;-47
2023/06/29 03:39:44;;;;;;;7.43;3.40;;;15.80;99.90;;;;;;5207769;28;20190;-47
2023/06/29 03:42:14;;;;;;;4.33;3.93;;;15.80;99.90;;;;;;5222047;28;20710;-48
2023/06/29 03:44:45;;;;;;;8.80;3.90;;;15.90;99.90;;;;;;5220198;28;20191;-48
2023/06/29 03:47:16;;;;;;;5.77;4.57;;;16.00;99.90;;;;;;5220879;28;20538;-47
2023/06/29 03:49:47;;;;;;;8.63;4.73;;;16.10;99.90;;;;;;5223649;28;20261;-47
2023/06/29 03:52:17;;;;;;;3.57;3.30;;;16.20;99.90;;;;;;5211351;28;20271;-47
2023/06/29 03:54:49;;;;;;;9.67;3.90;;;16.30;99.90;;;;;;5226676;28;20438;-47
2023/06/29 03:57:20;;;;;;;9.97;4.10;;;16.40;99.90;;;;;;5222976;28;20620;-47
2023/06/29 03:59:51;;;;;;;8.47;3.73;;;16.50;99.90;;;;;;5219663;28;20525;-47
2023/06/29 04:02:21;;;;;;;3.50;3.30;;;16.60;99.90;;;;;;5207864;28;20203;-47
2023/06/29 04:04:52;;;;;;;3.43;3.30;;;16.60;99.90;;;;;;5223229;28;20696;-48
2023/06/29 04:07:22;;;;;;;4.40;4.00;;;16.70;99.90;;;;;;5202387;28;20171;-48
2023/06/29 04:09:53;;;;;;;5.07;4.60;;;16.90;99.90;;;;;;5211511;28;20237;-47
2023/06/29 04:12:24;;;;;;;5.83;5.17;;;17.00;99.90;;;;;;5222048;28;20198;-46
2023/06/29 04:14:54;;;;;;;4.83;4.33;;;17.20;99.90;;;;;;5222684;28;20225;-48
2023/06/29 04:17:25;;;;;;;4.70;3.97;;;17.50;99.90;;;;;;5220600;28;20202;-46
2023/06/29 04:19:55;;;;;;;6.63;4.20;;;17.90;99.90;;;;;;5223345;28;20180;-47
2023/06/29 04:22:26;;;;;;;5.07;3.87;;;18.20;99.90;;;;;;5222002;28;20199;-48
2023/06/29 04:24:56;;;;;;;4.60;3.67;;;18.60;99.90;;;;;;5216811;28;20209;-48
2023/06/29 04:27:27;;;;;;;3.90;3.60;;;18.90;99.90;;;;;;5215711;28;20187;-48
2023/06/29 04:29:58;;;;;;;11.17;3.13;;;19.00;99.90;;;;;;5220390;28;20210;-47
2023/06/29 04:32:28;;;;;;;6.10;3.33;;;19.10;99.90;;;;;;5221092;28;20259;-48
2023/06/29 04:35:01;;;;;;;4.10;3.70;;;19.20;99.90;;;;;;5222541;28;20236;-47
2023/06/29 04:37:40;;;;;;;6.03;3.90;;;19.10;99.90;;;;;;5222667;28;20174;-48
2023/06/29 04:40:14;;;;;;;5.13;3.50;;;19.10;99.90;;;;;;5218654;28;20425;-48
2023/06/29 04:42:46;;;;;;;5.50;3.40;;;19.10;99.90;;;;;;5240280;22;20491;-45
2023/06/29 04:45:19;;;;;;;5.43;3.13;;;18.90;99.90;;;;;;5231901;28;20431;-47
2023/06/29 04:47:50;;;;;;;5.00;2.47;;;18.90;99.90;;;;;;5242151;28;20482;-46
2023/06/29 04:50:25;;;;;;;3.87;3.50;;;18.80;99.90;;;;;;5260034;28;20432;-47
2023/06/29 04:52:58;;;;;;;3.53;3.23;;;18.80;99.90;;;;;;5258321;28;20826;-45
2023/06/29 04:55:29;;;;;;;4.83;2.70;;;19.20;99.90;;;;;;5246795;28;20491;-46
2023/06/29 04:58:00;;;;;;;6.57;3.30;;;19.50;99.90;;;;;;5257661;28;20448;-48
2023/06/29 05:00:32;;;;;;;3.10;2.90;;;20.00;99.90;;;;;;5265597;28;20653;-46
2023/06/29 05:03:03;;;;;;;3.80;3.40;;;21.50;99.90;;;;;;5252144;28;20669;-46
2023/06/29 05:05:34;;;;;;;5.30;3.00;;;23.20;99.90;;;;;;5267954;28;20439;-46
2023/06/29 05:08:06;;;;;;;4.27;3.43;;;24.20;99.90;;;;;;5244771;28;20178;-45
2023/06/29 05:10:36;;;;;;;6.40;4.03;;;25.10;96.50;;;;;;5268262;28;20199;-46
2023/06/29 05:13:07;;;;;;;5.80;3.67;;;25.50;92.10;;;;;;5260976;28;20538;-46
2023/06/29 05:15:38;;;;;;;3.87;3.17;;;25.40;89.30;;;;;;5258040;28;20288;-46
2023/06/29 05:18:08;;;;;;;7.77;3.63;;;25.80;88.30;;;;;;5261207;28;20693;-46
2023/06/29 05:20:39;;;;;;;4.03;3.63;;;26.60;82.90;;;;;;5271654;28;20174;-46
2023/06/29 05:23:11;;;;;;;6.13;3.30;;;27.20;77.10;;;;;;5269190;28;20191;-46
2023/06/29 05:25:42;;;;;;;2.93;2.30;;;27.70;73.20;;;;;;5254262;28;20793;-46
2023/06/29 05:28:12;;;;;;;4.63;2.57;;;27.80;68.10;;;;;;5245068;28;20439;-47
2023/06/29 05:30:43;;;;;;;2.30;2.20;;;28.10;66.20;;;;;;5254102;28;20192;-48
2023/06/29 05:33:14;;;;;;;2.27;2.07;;;28.30;64.20;;;;;;5260140;28;20206;-47
2023/06/29 05:35:47;;;;;;;3.90;3.30;;;28.90;60.60;;;;;;5259341;28;20198;-46
2023/06/29 05:38:18;;;;;;;2.60;2.40;;;29.70;55.60;;;;;;5251842;28;20185;-48
2023/06/29 05:40:49;;;;;;;3.90;2.20;;;30.60;53.50;;;;;;5262789;28;20185;-46
2023/06/29 05:43:21;;;;;;;3.00;2.70;;;31.80;49.60;;;;;;5271268;28;20225;-47
2023/06/29 05:45:51;;;;;;;2.70;2.10;;;32.60;47.40;;;;;;5234619;28;20213;-47
2023/06/29 05:48:22;;;;;;;8.68;2.50;;;33.90;45.50;;;;;;5262186;28;20671;-46
2023/06/29 05:50:53;;;;;;;4.40;2.85;;;35.00;40.80;;;;;;5260803;28;20193;-47
2023/06/29 05:53:23;;;;;;;3.05;2.55;;;35.20;39.50;;;;;;5266939;28;20219;-46
2023/06/29 05:55:54;;;;;;;3.53;1.92;;;34.40;39.50;;;;;;5270567;28;20254;-47
2023/06/29 05:58:24;;;;;;;3.10;2.35;;;33.80;40.60;;;;;;5251894;28;20188;-47
2023/06/29 06:00:55;;;;;;;2.40;2.30;;;34.60;40.50;;;;;;5267542;28;20282;-48
2023/06/29 06:03:26;;;;;;;4.35;2.15;;;35.60;39.50;;;;;;5260079;28;20209;-46
2023/06/29 06:05:57;;;;;;;5.28;2.20;;;36.80;37.40;;;;;;5259817;28;20270;-47
2023/06/29 06:08:27;;;;;;;2.35;2.17;;;37.60;35.60;;;;;;5266285;28;20196;-47
2023/06/29 06:10:58;;;;;;;4.43;2.80;;;37.70;34.50;;;;;;5243805;28;20526;-48
2023/06/29 06:13:29;;;;;;;4.82;3.60;;;38.20;34.50;;;;;;5272083;28;20568;-46
2023/06/29 06:16:00;;;;;;;7.28;2.83;;;38.70;33.00;;;;;;5253902;28;20287;-46
2023/06/29 06:18:31;;;;;;;2.72;2.53;;;39.00;32.90;;;;;;5267358;28;20188;-47
2023/06/29 06:21:01;;;;;;;4.85;2.83;;;39.50;32.10;;;;;;5259299;28;20245;-46
2023/06/29 06:23:32;;;;;;;5.72;2.22;;;39.90;31.40;;;;;;5265685;28;20209;-47
2023/06/29 06:26:03;;;;;;;12.90;3.67;;;40.40;30.70;;;;;;5248727;28;20186;-47
2023/06/29 06:28:33;;;;;;;3.00;2.10;;;40.50;30.00;;;;;;5265070;28;20668;-46
2023/06/29 06:31:04;;;;;;;5.47;3.05;;;40.60;29.80;;;;;;5257205;28;20188;-47
2023/06/29 06:33:35;;;;;;;4.38;2.35;;;40.70;29.50;;;;;;5268887;28;20335;-48
2023/06/29 06:36:07;;;;;;;6.05;2.60;;;40.20;28.90;;;;;;5253210;28;20251;-47
2023/06/29 06:38:38;;;;;;;3.38;3.08;;;40.60;29.10;;;;;;5243650;28;20541;-46
2023/06/29 06:41:09;;;;;;;4.00;2.38;;;40.50;28.50;;;;;;5266315;28;20680;-46
2023/06/29 06:43:40;;;;;;;2.83;2.55;;;40.50;28.80;;;;;;5252172;28;20710;-49
2023/06/29 06:46:10;;;;;;;6.40;2.65;;;41.00;28.40;;;;;;5261483;28;20185;-47
2023/06/29 06:48:41;;;;;;;3.58;2.17;;;41.10;28.30;;;;;;5239273;28;20209;-47
2023/06/29 06:51:12;;;;;;;3.15;1.98;;;41.50;27.90;;;;;;5252070;28;20191;-47
2023/06/29 06:53:42;;;;;;;2.40;2.25;;;42.10;27.50;;;;;;5257645;28;20198;-47
2023/06/29 06:56:13;;;;;;;3.00;2.47;;;42.60;26.90;;;;;;5251356;28;20654;-46
2023/06/29 06:58:44;;;;;;;2.60;2.10;;;42.40;26.20;;;;;;5249641;28;20200;-47
2023/06/29 07:01:16;;;;;;;4.70;3.40;;;42.20;26.90;;;;;;5251503;28;20184;-46
2023/06/29 07:03:47;;;;;;;3.03;2.80;;;42.30;25.90;;;;;;5252964;28;20193;-47
2023/06/29 07:06:21;;;;;;;4.20;2.88;;;41.70;26.30;;;;;;5270603;28;20246;-47
2023/06/29 07:08:52;;;;;;;4.32;2.58;;;41.20;26.60;;;;;;5253085;28;20215;-46
2023/06/29 07:11:23;;;;;;;1.92;1.67;;;40.00;27.40;;;;;;5267570;28;20227;-47
2023/06/29 07:13:53;;;;;;;4.57;2.28;;;39.10;27.80;;;;;;5250949;28;20201;-48
2023/06/29 07:16:25;;;;;;;2.25;1.70;;;36.80;29.10;;;;;;5233003;28;20278;-47
2023/06/29 07:19:08;;;;;;;3.80;2.20;;;34.70;31.80;;;;;;5253010;28;20196;-47
2023/06/29 07:21:38;;;;;;;2.75;1.80;;;32.70;34.80;;;;;;5253925;28;20170;-47
2023/06/29 07:24:10;;;;;;;2.40;2.23;;;31.00;37.70;;;;;;5253390;28;20542;-47
2023/06/29 07:26:41;;;;;;;2.07;1.97;;;29.70;40.00;;;;;;5267996;28;20178;-46
2023/06/29 07:29:11;;;;;;;2.10;1.87;;;28.90;41.50;;;;;;5258007;28;20191;-46
2023/06/29 07:31:43;;;;;;;3.00;2.20;;;28.30;42.30;;;;;;5255992;28;20230;-47
2023/06/29 07:34:14;;;;;;;2.07;1.33;;;27.90;43.70;;;;;;5251539;28;20205;-46
2023/06/29 07:36:45;;;;;;;6.00;3.13;;;27.70;43.40;;;;;;5251465;28;20443;-47
2023/06/29 07:39:16;;;;;;;26.13;5.63;;;27.40;43.60;;;;;;5258605;28;20497;-46
2023/06/29 07:41:48;;;;;;;12.60;4.73;;;27.00;44.50;;;;;;5248379;28;20799;-47
2023/06/29 07:44:19;;;;;;;2.30;1.50;;;26.80;45.20;;;;;;5246442;28;20455;-48
2023/06/29 07:46:49;;;;;;;7.60;2.10;;;26.60;45.00;;;;;;5270188;28;20438;-46
2023/06/29 07:49:21;;;;;;;17.13;5.40;;;26.50;45.40;;;;;;5251133;28;20540;-47
2023/06/29 07:51:53;;;;;;;1.73;1.37;;;26.30;45.10;;;;;;5256676;28;20672;-46
2023/06/29 07:54:24;;;;;;;7.00;2.87;;;26.20;45.60;;;;;;5267628;28;20781;-48
2023/06/29 07:56:54;;;;;;;10.00;4.40;;;26.00;46.20;;;;;;5245558;28;20547;-47
2023/06/29 07:59:25;;;;;;;11.30;3.43;;;25.90;46.70;;;;;;5245541;28;20182;-47
2023/06/29 08:01:56;;;;;;;3.13;1.60;;;25.80;47.20;;;;;;5247102;28;20201;-46
2023/06/29 08:04:26;;;;;;;1.90;1.80;;;25.70;47.60;;;;;;5263125;28;20272;-46
2023/06/29 08:06:57;;;;;;;2.17;1.90;;;25.70;48.30;;;;;;5258369;28;20189;-46
2023/06/29 08:09:27;;;;;;;10.90;3.40;;;25.60;48.10;;;;;;5260861;28;20549;-48
2023/06/29 08:11:58;;;;;;;7.33;3.13;;;25.50;47.90;;;;;;5262061;28;20206;-46
2023/06/29 08:14:29;;;;;;;2.10;1.50;;;25.30;48.60;;;;;;5246834;28;20584;-46
2023/06/29 08:16:59;;;;;;;3.70;1.60;;;25.30;49.00;;;;;;5260534;28;20209;-47
2023/06/29 08:19:30;;;;;;;3.07;1.50;;;25.30;49.40;;;;;;5250235;28;20311;-47
2023/06/29 08:22:01;;;;;;;2.10;1.80;;;25.20;49.80;;;;;;5264418;28;20235;-46
2023/06/29 08:24:31;;;;;;;2.30;1.60;;;25.50;49.60;;;;;;5244030;28;20635;-47
2023/06/29 08:27:02;;;;;;;2.90;1.30;;;25.70;49.10;;;;;;5243459;28;20205;-46
2023/06/29 08:29:33;;;;;;;1.60;1.50;;;26.00;48.80;;;;;;5265699;28;20182;-46
2023/06/29 08:32:04;;;;;;;2.80;1.40;;;26.30;47.80;;;;;;5265604;28;20201;-46
2023/06/29 08:34:35;;;;;;;1.60;1.10;;;26.10;47.30;;;;;;5250709;28;20181;-47
2023/06/29 08:37:05;;;;;;;7.67;1.90;;;25.90;47.90;;;;;;5250353;28;20531;-47
2023/06/29 08:39:36;;;;;;;2.63;1.20;;;25.80;48.50;;;;;;5251004;28;20188;-47
2023/06/29 08:42:07;;;;;;;1.53;1.33;;;25.80;48.40;;;;;;5247763;28;20202;-48
2023/06/29 08:44:37;;;;;;;1.30;1.23;;;25.60;48.40;;;;;;5247394;28;20236;-45
2023/06/29 08:47:11;;;;;;;1.50;1.40;;;25.50;49.30;;;;;;5250049;28;20177;-47
2023/06/29 08:49:42;;;;;;;2.87;1.40;;;25.50;49.20;;;;;;5270234;28;20188;-45
2023/06/29 08:52:17;;;;;;;1.10;1.10;;;25.50;49.30;;;;;;5251250;28;20479;-46
2023/06/29 08:54:48;;;;;;;4.73;1.80;;;25.40;49.50;;;;;;5267051;28;20463;-46
2023/06/29 08:57:23;;;;;;;4.47;1.30;;;25.40;49.40;;;;;;5255020;28;20950;-46
2023/06/29 08:59:54;;;;;;;3.73;1.93;;;25.40;49.40;;;;;;5249932;28;20951;-49
2023/06/29 09:02:26;;;;;;;3.50;1.90;;;25.30;50.00;;;;;;5251061;28;20461;-47
2023/06/29 09:04:59;;;;;;;2.10;1.40;;;25.40;50.30;;;;;;5248042;28;20451;-47
2023/06/29 09:07:29;;;;;;;1.57;1.47;;;25.60;50.20;;;;;;5253021;28;20427;-46
2023/06/29 09:10:01;;;;;;;1.60;1.50;;;25.90;50.10;;;;;;5253914;28;20427;-46
2023/06/29 09:12:33;;;;;;;1.83;1.47;;;26.10;49.30;;;;;;5263312;28;20206;-47
2023/06/29 09:15:12;;;;;;;1.13;1.13;;;26.30;48.70;;;;;;5245524;28;20486;-47
2023/06/29 09:17:47;;;;;;;2.10;1.17;;;26.30;47.60;;;;;;5266853;28;20471;-48
2023/06/29 09:20:20;;;;;;;1.13;1.03;;;26.60;47.10;;;;;;5253535;28;20423;-45
2023/06/29 09:22:51;;;;;;;1.37;1.37;;;26.60;46.60;;;;;;5263440;28;20463;-47
2023/06/29 09:25:25;;;;;;;2.27;2.07;;;26.70;46.80;;;;;;5260023;28;20431;-46
2023/06/29 09:28:05;;;;;;;1.10;1.00;;;26.70;46.90;;;;;;5253655;28;20446;-47
2023/06/29 09:30:38;;;;;;;2.83;1.40;;;26.30;47.00;;;;;;5247036;28;20432;-47
2023/06/29 09:33:10;;;;;;;1.00;1.00;;;26.00;47.70;;;;;;5238027;28;20497;-47
2023/06/29 09:35:46;;;;;;;1.07;1.07;;;25.80;47.90;;;;;;5264107;28;20895;-46
2023/06/29 09:38:17;;;;;;;1.10;1.10;;;25.20;49.20;;;;;;5268686;28;20438;-47
2023/06/29 09:40:51;;;;;;;2.13;1.87;;;25.40;49.80;;;;;;5237413;28;20423;-46
2023/06/29 09:43:26;;;;;;;3.50;3.20;;;25.60;49.80;;;;;;5260310;28;20608;-46
2023/06/29 09:46:07;;;;;;;3.37;2.17;;;25.90;49.70;;;;;;5240455;28;20546;-47
2023/06/29 09:48:46;;;;;;;6.90;2.50;;;26.30;48.90;;;;;;5243496;28;20493;-47
2023/06/29 09:51:22;;;;;;;3.47;2.13;;;26.60;48.40;;;;;;5251415;28;20489;-47
2023/06/29 09:53:53;;;;;;;1.30;1.30;;;26.90;47.90;;;;;;5247448;28;20802;-47
2023/06/29 09:56:25;;;;;;;4.67;1.67;;;27.20;47.00;;;;;;5243872;28;20451;-46
2023/06/29 09:58:56;;;;;;;4.30;2.13;;;27.50;47.20;;;;;;5268520;28;20189;-46
2023/06/29 10:01:28;;;;;;;3.63;2.73;;;27.80;46.80;;;;;;5255257;28;20454;-47
2023/06/29 10:03:59;;;;;;;1.67;1.30;;;28.20;45.80;;;;;;5247239;28;20457;-48
2023/06/29 10:06:50;;;;;;;2.80;2.53;;;28.20;45.80;;;;;;5252127;28;20428;-46
2023/06/29 10:09:21;;;;;;;5.20;3.20;;;28.30;46.30;;;;;;5259201;28;20220;-46
2023/06/29 10:11:55;;;;;;;1.97;1.87;;;28.40;46.30;;;;;;5269666;28;20804;-46
2023/06/29 10:14:26;;;;;;;3.23;2.00;;;28.60;45.80;;;;;;5247850;28;20452;-46
2023/06/29 10:16:57;;;;;;;1.50;1.40;;;28.60;46.00;;;;;;5269676;28;20497;-46
2023/06/29 10:19:30;;;;;;;5.73;2.10;;;28.80;45.80;;;;;;5252744;28;20276;-46
2023/06/29 10:22:08;;;;;;;3.43;3.23;;;28.50;45.60;;;;;;5248333;28;20197;-47
2023/06/29 10:24:47;;;;;;;4.97;2.00;;;28.60;45.90;;;;;;5249193;28;20441;-46
2023/06/29 10:27:20;;;;;;;1.77;1.67;;;28.70;45.90;;;;;;5246632;28;20431;-47
2023/06/29 10:29:51;;;;;;;1.33;1.23;;;28.30;45.70;;;;;;5263044;28;20459;-46
2023/06/29 10:32:32;;;;;;;1.47;1.47;;;28.10;46.60;;;;;;5249565;28;20874;-45
2023/06/29 10:35:04;;;;;;;1.63;1.40;;;27.90;46.80;;;;;;5268772;28;20174;-47
2023/06/29 10:37:46;;;;;;;2.77;1.90;;;27.80;47.30;;;;;;5265502;28;20969;-46
2023/06/29 10:40:18;;;;;;;3.70;1.93;;;27.70;46.70;;;;;;5260229;28;21017;-47
2023/06/29 10:42:51;;;;;;;3.90;2.37;;;27.00;47.40;;;;;;5269474;22;20499;-49
2023/06/29 10:45:21;;;;;;;4.17;1.90;;;26.80;48.50;;;;;;5264969;28;20928;-47
2023/06/29 10:47:59;;;;;;;3.00;2.47;;;26.80;48.60;;;;;;5257189;28;20474;-48
2023/06/29 10:50:50;;;;;;;4.90;3.90;;;26.80;48.80;;;;;;5271280;28;20174;-50
2023/06/29 10:53:21;;;;;;;3.63;3.13;;;26.80;47.90;;;;;;5260554;28;20422;-47
2023/06/29 10:55:56;;;;;;;9.70;5.50;;;26.90;47.50;;;;;;5225878;28;20959;-48
2023/06/29 10:58:35;;;;;;;8.10;4.50;;;27.20;47.10;;;;;;5243867;28;20923;-48
2023/06/29 11:01:05;;;;;;;1.80;1.70;;;27.20;47.20;;;;;;5249091;28;20425;-48
2023/06/29 11:03:36;;;;;;;5.50;2.93;;;27.40;46.80;;;;;;5251260;28;20510;-49
2023/06/29 11:06:07;;;;;;;2.87;2.77;;;27.30;46.70;;;;;;5233609;28;20539;-47
2023/06/29 11:08:37;;;;;;;9.47;2.80;;;27.70;46.60;;;;;;5261134;28;20185;-50
2023/06/29 11:11:14;;;;;;;1.60;1.50;;;28.00;46.50;;;;;;5230666;28;20417;-49
2023/06/29 11:13:45;;;;;;;1.57;1.47;;;28.60;45.60;;;;;;5235188;28;20212;-48
2023/06/29 11:16:15;;;;;;;1.80;1.73;;;29.10;45.00;;;;;;5250650;28;20495;-48
2023/06/29 11:18:50;;;;;;;2.47;2.17;;;29.30;44.10;;;;;;5213492;28;20534;-48
2023/06/29 11:21:21;;;;;;;2.00;1.90;;;29.30;44.30;;;;;;5254322;28;20506;-48
2023/06/29 11:23:52;;;;;;;2.03;1.87;;;29.40;44.20;;;;;;5252118;28;20450;-48
2023/06/29 11:26:24;;;;;;;3.13;1.90;;;29.60;44.10;;;;;;5251281;28;20637;-48
2023/06/29 11:28:55;;;;;;;2.17;2.10;;;29.60;44.40;;;;;;5243834;28;20432;-48
2023/06/29 11:31:25;;;;;;;4.10;3.33;;;29.90;43.90;;;;;;5241597;28;20440;-48
2023/06/29 11:33:57;;;;;;;1.97;1.83;;;30.00;43.50;;;;;;5221688;28;20511;-49
2023/06/29 11:36:29;;;;;;;2.43;2.23;;;29.90;43.20;;;;;;5226008;28;20193;-49
2023/06/29 11:39:18;;;;;;;2.60;2.40;;;29.90;43.10;;;;;;5231123;28;20433;-48
2023/06/29 11:41:49;;;;;;;14.47;4.80;;;29.70;43.30;;;;;;5248689;28;20419;-49
2023/06/29 11:44:22;;;;;;;4.67;4.20;;;29.60;43.90;;;;;;5248095;28;20484;-48
2023/06/29 11:46:59;;;;;;;2.90;2.20;;;29.80;44.60;;;;;;5244013;28;20458;-49
2023/06/29 11:49:29;;;;;;;4.87;2.40;;;29.70;43.10;;;;;;5242174;28;20500;-50
2023/06/29 11:52:03;;;;;;;4.17;2.20;;;29.80;43.30;;;;;;5247607;28;20439;-48
2023/06/29 11:54:34;;;;;;;2.60;2.50;;;29.90;43.50;;;;;;5240316;28;20510;-48
2023/06/29 11:57:05;;;;;;;3.53;2.27;;;30.10;43.50;;;;;;5229879;28;20493;-48
2023/06/29 11:59:39;;;;;;;3.60;2.27;;;30.00;43.50;;;;;;5240111;28;20483;-51
2023/06/29 12:02:10;;;;;;;1.97;1.87;;;29.70;43.60;;;;;;5227287;28;20189;-49
2023/06/29 12:04:55;;;;;;;4.30;3.13;;;29.50;44.40;;;;;;5226702;28;20424;-49
2023/06/29 12:07:40;;;;;;;6.03;3.87;;;29.20;44.50;;;;;;5231373;28;20186;-48
2023/06/29 12:10:20;;;;;;;5.43;3.90;;;28.50;45.90;;;;;;5237758;28;20460;-48
2023/06/29 12:12:55;;;;;;;1.90;1.90;;;28.30;46.50;;;;;;5230284;28;20528;-49
2023/06/29 12:15:28;;;;;;;4.03;2.37;;;28.40;46.90;;;;;;5251825;28;20458;-47
2023/06/29 12:18:06;;;;;;;2.53;2.43;;;28.40;46.70;;;;;;5247849;28;20414;-48
2023/06/29 12:20:42;;;;;;;2.33;2.23;;;28.40;46.50;;;;;;5236407;28;20423;-48
2023/06/29 12:23:14;;;;;;;2.33;2.13;;;28.40;46.30;;;;;;5229926;28;20447;-49
2023/06/29 12:25:49;;;;;;;3.13;1.80;;;28.30;46.60;;;;;;5240410;28;20443;-50
2023/06/29 12:28:21;;;;;;;2.87;2.77;;;28.40;47.40;;;;;;5233449;28;20858;-47
2023/06/29 12:30:52;;;;;;;2.87;2.67;;;28.20;46.80;;;;;;5247656;28;20442;-47
2023/06/29 12:33:22;;;;;;;3.47;2.10;;;28.40;46.50;;;;;;5251277;28;20455;-49
2023/06/29 12:35:53;;;;;;;2.60;2.40;;;28.40;46.50;;;;;;5252451;28;20228;-50
2023/06/29 12:38:24;;;;;;;5.40;4.47;;;28.00;47.40;;;;;;5248978;28;20202;-49
2023/06/29 12:40:54;;;;;;;5.13;4.27;;;27.50;48.60;;;;;;5233919;28;20539;-48
2023/06/29 12:43:25;;;;;;;2.90;2.60;;;27.30;48.50;;;;;;5254115;28;20237;-48
2023/06/29 12:45:56;;;;;;;2.57;2.37;;;27.50;48.50;;;;;;5240675;28;20183;-48
2023/06/29 12:48:26;;;;;;;2.27;1.60;;;28.10;47.80;;;;;;5236855;28;20174;-48
2023/06/29 12:50:59;;;;;;;2.33;2.13;;;28.50;46.50;;;;;;5249609;28;20178;-49
2023/06/29 12:53:32;;;;;;;1.97;1.87;;;28.50;46.60;;;;;;5251817;28;20198;-50
2023/06/29 12:56:03;;;;;;;5.03;1.97;;;28.30;46.80;;;;;;5214920;28;21001;-49
2023/06/29 12:58:33;;;;;;;3.17;2.97;;;28.10;46.40;;;;;;5245672;28;20439;-49
2023/06/29 13:01:04;;;;;;;6.63;2.60;;;27.90;47.50;;;;;;5217610;28;20630;-48
2023/06/29 13:10:29;;;;;;;15.20;2.90;;;28.10;47.90;;;;;;5252749;28;20808;-48
2023/06/29 13:13:03;;;;;;;1.97;1.87;;;28.30;47.60;;;;;;5249047;28;20459;-48
2023/06/29 13:15:34;;;;;;;2.50;2.40;;;28.40;47.50;;;;;;5256228;28;20200;-49
2023/06/29 13:18:04;;;;;;;2.17;2.07;;;28.20;47.10;;;;;;5251355;28;20425;-48